Friday, October 19, 2018, 12:34 PM EDT
Back to Local

KAUG, Augusta State Airport

Location: Augusta, ME, United States Lat: 44.317
Local Time: 12:34 PM EDT (16:34 GMT) Lon: -69.8
Time Zone: US/Eastern Elev: 351 ft

Show me the last for .
Show Decoded

2018-10-19 11:53 METAR KAUG 191553Z AUTO 18007KT 10SM CLR 09/M01 A3006 RMK AO2 SLP182 T00941011 =
2018-10-19 10:53 METAR KAUG 191453Z AUTO 22008KT 10SM CLR 08/M02 A3008 RMK AO2 SLP190 T00831017
                 58022 =
2018-10-19 09:53 METAR KAUG 191353Z AUTO 23009G15KT 10SM SCT044 06/M03 A3011 RMK AO2 SLP199
                 T00561028 =
2018-10-19 08:53 METAR KAUG 191253Z AUTO 21005KT 10SM OVC065 03/M03 A3013 RMK AO2 SLP205
                 T00331028 =
2018-10-19 07:53 METAR KAUG 191153Z AUTO 22005KT 10SM OVC060 02/M04 A3015 RMK AO2 SLP214
                 T00171039 10017 20006 55001 =
2018-10-19 06:53 METAR KAUG 191053Z AUTO 19003KT 10SM BKN050 OVC065 01/M05 A3015 RMK AO2 SLP213
                 T00111050 =
2018-10-19 05:53 METAR KAUG 190953Z AUTO 20004KT 10SM OVC049 01/M05 A3015 RMK AO2 SLP213
                 T00061050 =
2018-10-19 04:53 METAR KAUG 190853Z AUTO 16004KT 10SM FEW038 BKN045 OVC075 01/M06 A3015 RMK AO2
                 SLP214 T00061056 58011 =
2018-10-19 03:53 METAR KAUG 190753Z AUTO 20003KT 10SM OVC070 01/M06 A3017 RMK AO2 SLP220
                 T00061061 =
2018-10-19 02:53 METAR KAUG 190653Z AUTO 21003KT 10SM OVC075 01/M06 A3018 RMK AO2 SLP222
                 T00111061 =
2018-10-19 01:53 METAR KAUG 190553Z AUTO 25007KT 10SM OVC100 01/M07 A3018 RMK AO2 SLP225
                 T00111067 10022 21011 57002 =
2018-10-19 00:53 METAR KAUG 190453Z AUTO 23005KT 10SM OVC110 01/M07 A3019 RMK AO2 SLP225
                 T00061067 400501011 =
2018-10-18 23:53 METAR KAUG 190353Z AUTO 22004KT 10SM CLR M01/M07 A3019 RMK AO2 SLP227 T10111067
                 =
2018-10-18 22:53 METAR KAUG 190253Z AUTO 23003KT 10SM CLR 01/M08 A3019 RMK AO2 SLP227 T00061078
                 50002 =
2018-10-18 21:53 METAR KAUG 190153Z AUTO 00000KT 10SM CLR 01/M08 A3020 RMK AO2 SLP229 T00111078 =
2018-10-18 20:53 METAR KAUG 190053Z AUTO 29009G17KT 10SM CLR 02/M08 A3018 RMK AO2 SLP225
                 T00171083 =
2018-10-18 19:53 METAR KAUG 182353Z AUTO 30011KT 10SM OVC060 02/M08 A3018 RMK AO2 SLP225
                 T00221083 10050 20022 51022 =
2018-10-18 18:53 METAR KAUG 182253Z AUTO 29010G16KT 10SM OVC060 03/M09 A3017 RMK AO2 SLP220
                 T00281089 =
2018-10-18 17:53 METAR KAUG 182153Z AUTO 31007G21KT 10SM OVC065 03/M09 A3014 RMK AO2 SLP212
                 T00281094 =
2018-10-18 16:53 METAR KAUG 182053Z AUTO 29016G26KT 10SM FEW065 03/M09 A3012 RMK AO2 PK WND
                 30026/2053 SLP203 T00331094 53013 =
2018-10-18 15:53 METAR KAUG 181953Z AUTO 28014G26KT 10SM OVC065 04/M10 A3010 RMK AO2 PK WND
                 28032/1939 SLP196 T00391100 =
2018-10-18 14:53 METAR KAUG 181853Z AUTO 28011G24KT 10SM FEW065 04/M08 A3009 RMK AO2 PK WND
                 28029/1815 SLP191 T00441083 =
2018-10-18 13:53 METAR KAUG 181753Z AUTO 30013G26KT 10SM SCT060 04/M08 A3008 RMK AO2 PK WND
                 29027/1659 SLP189 T00441083 10050 20011 51006 =
2018-10-18 12:53 METAR KAUG 181653Z AUTO 29015G28KT 10SM FEW050 04/M08 A3007 RMK AO2 PK WND
                 29030/1613 SLP187 T00441078 =

Support USWX by starting your Amazon purchase here.